Time;durP1;ratioP1;P1;durP2;ratioP2;P2;SDS_P1;SDS_P2;PMS_P1;PMS_P2;Temp;Humidity;BMP_temperature;BMP_pressure;BME280_temperature;BME280_humidity;BME280_pressure;Samples;Min_cycle;Max_cycle;Signal;HPM_P1;HPM_P2
2023/12/04 00:00:28;;;;;;;3.10;2.83;;;;;;;;;;1052041;28;20156;-70
2023/12/04 00:00:59;;;;;;;5.70;2.15;;;;;;;;;;1052368;28;20020;-70
2023/12/04 00:01:29;;;;;;;5.95;3.00;;;;;;;;;;1052329;28;20031;-70
2023/12/04 00:01:59;;;;;;;3.58;3.25;;;;;;;;;;1052630;28;20060;-70
2023/12/04 00:02:30;;;;;;;16.45;4.60;;;;;;;;;;1052420;28;20115;-70
2023/12/04 00:03:00;;;;;;;2.40;2.25;;;;;;;;;;1052784;28;20038;-70
2023/12/04 00:03:31;;;;;;;0.75;0.75;;;;;;;;;;1052410;28;20027;-70
2023/12/04 00:04:01;;;;;;;0.80;0.80;;;;;;;;;;1052538;28;20082;-70
2023/12/04 00:04:32;;;;;;;0.77;0.77;;;;;;;;;;1052046;28;20077;-70
2023/12/04 00:05:02;;;;;;;4.35;2.83;;;;;;;;;;1052392;28;20039;-70
2023/12/04 00:05:33;;;;;;;2.22;1.98;;;;;;;;;;1052109;28;20027;-70
2023/12/04 00:06:05;;;;;;;3.55;2.33;;;;;;;;;;1052118;28;20040;-70
2023/12/04 00:06:35;;;;;;;2.05;1.95;;;;;;;;;;1052001;28;20040;-70
2023/12/04 00:07:06;;;;;;;5.95;2.40;;;;;;;;;;1052304;28;20040;-70
2023/12/04 00:07:36;;;;;;;2.67;2.47;;;;;;;;;;1052407;28;20036;-70
2023/12/04 00:08:07;;;;;;;3.17;1.77;;;;;;;;;;1052238;28;20506;-70
2023/12/04 00:08:37;;;;;;;2.35;1.17;;;;;;;;;;1052144;28;20471;-70
2023/12/04 00:09:08;;;;;;;3.20;2.42;;;;;;;;;;1052257;28;20031;-70
2023/12/04 00:09:38;;;;;;;2.25;2.05;;;;;;;;;;1052085;28;20472;-70
2023/12/04 00:10:09;;;;;;;11.35;3.90;;;;;;;;;;1052590;28;20502;-70
2023/12/04 00:10:39;;;;;;;3.17;2.67;;;;;;;;;;1052411;28;20012;-70
2023/12/04 00:11:10;;;;;;;1.42;1.40;;;;;;;;;;1052470;28;20024;-70
2023/12/04 00:11:40;;;;;;;3.67;3.40;;;;;;;;;;1052614;28;20028;-70
2023/12/04 00:12:11;;;;;;;2.58;2.40;;;;;;;;;;1052604;28;20032;-70
2023/12/04 00:12:41;;;;;;;21.48;2.50;;;;;;;;;;1052404;28;20028;-70
2023/12/04 00:13:12;;;;;;;0.50;0.50;;;;;;;;;;1052631;28;20038;-70
2023/12/04 00:13:43;;;;;;;1.50;1.40;;;;;;;;;;1052409;28;20027;-70
2023/12/04 00:14:13;;;;;;;4.78;2.25;;;;;;;;;;1052645;28;20024;-70
2023/12/04 00:14:44;;;;;;;1.45;1.35;;;;;;;;;;1052429;28;20119;-70
2023/12/04 00:15:14;;;;;;;6.80;4.15;;;;;;;;;;1052234;28;20024;-70
2023/12/04 00:15:44;;;;;;;2.15;1.75;;;;;;;;;;1051977;28;20028;-70
2023/12/04 00:16:15;;;;;;;3.58;2.22;;;;;;;;;;1052241;28;20482;-70
2023/12/04 00:16:45;;;;;;;6.00;4.40;;;;;;;;;;1052131;28;20554;-70
2023/12/04 00:17:16;;;;;;;1.50;1.40;;;;;;;;;;1052641;28;20082;-70
2023/12/04 00:17:47;;;;;;;3.45;2.58;;;;;;;;;;1052448;28;20161;-70
2023/12/04 00:18:17;;;;;;;3.53;3.22;;;;;;;;;;1052548;28;20124;-70
2023/12/04 00:18:48;;;;;;;2.28;2.13;;;;;;;;;;1052413;28;20055;-70
2023/12/04 00:19:18;;;;;;;2.08;1.98;;;;;;;;;;1052538;28;20122;-70
2023/12/04 00:19:49;;;;;;;0.98;0.93;;;;;;;;;;1052419;28;20027;-70
2023/12/04 00:20:19;;;;;;;24.65;4.20;;;;;;;;;;1052647;28;20356;-70
2023/12/04 00:20:50;;;;;;;3.13;1.85;;;;;;;;;;1052426;28;20039;-70
2023/12/04 00:21:20;;;;;;;8.77;3.38;;;;;;;;;;1052518;28;20039;-70
2023/12/04 00:21:50;;;;;;;1.75;1.60;;;;;;;;;;1052401;28;20031;-70
2023/12/04 00:22:21;;;;;;;1.70;1.58;;;;;;;;;;1052566;28;20035;-70
2023/12/04 00:22:51;;;;;;;6.97;3.38;;;;;;;;;;1052162;28;20020;-70
2023/12/04 00:23:22;;;;;;;4.72;4.28;;;;;;;;;;1052239;28;20059;-70
2023/12/04 00:23:52;;;;;;;1.88;1.50;;;;;;;;;;1052096;28;20027;-70
2023/12/04 00:24:22;;;;;;;2.83;2.58;;;;;;;;;;1052241;28;20066;-70
2023/12/04 00:24:53;;;;;;;8.35;5.63;;;;;;;;;;1052435;28;20027;-71
2023/12/04 00:25:23;;;;;;;2.97;2.75;;;;;;;;;;1052502;28;20024;-71
2023/12/04 00:25:55;;;;;;;6.63;1.98;;;;;;;;;;1052550;28;20032;-70
2023/12/04 00:26:25;;;;;;;0.95;0.95;;;;;;;;;;1052345;28;20028;-70
2023/12/04 00:26:56;;;;;;;1.70;1.60;;;;;;;;;;1052492;28;20119;-70
2023/12/04 00:27:27;;;;;;;1.50;1.40;;;;;;;;;;1052346;28;20472;-70
2023/12/04 00:27:58;;;;;;;6.22;3.78;;;;;;;;;;1052575;28;20024;-70
2023/12/04 00:28:28;;;;;;;3.08;2.00;;;;;;;;;;1052350;28;20426;-70
2023/12/04 00:28:59;;;;;;;4.22;2.90;;;;;;;;;;1052705;28;20395;-70
2023/12/04 00:29:29;;;;;;;2.40;2.25;;;;;;;;;;1052400;28;20039;-70
2023/12/04 00:30:00;;;;;;;6.13;3.13;;;;;;;;;;1052565;28;20124;-70
2023/12/04 00:30:30;;;;;;;2.28;2.05;;;;;;;;;;1052340;28;20038;-70
2023/12/04 00:31:01;;;;;;;2.88;2.45;;;;;;;;;;1052602;28;20028;-71
2023/12/04 00:31:31;;;;;;;6.45;4.40;;;;;;;;;;1052245;28;20032;-70
2023/12/04 00:32:02;;;;;;;5.65;1.58;;;;;;;;;;1052612;28;20032;-71
2023/12/04 00:32:32;;;;;;;2.45;2.33;;;;;;;;;;1052005;28;20107;-70
2023/12/04 00:33:03;;;;;;;1.17;1.08;;;;;;;;;;1052259;28;20471;-70
2023/12/04 00:33:33;;;;;;;1.92;1.83;;;;;;;;;;1052014;28;20034;-70
2023/12/04 00:34:03;;;;;;;5.15;2.72;;;;;;;;;;1052278;28;20483;-70
2023/12/04 00:34:34;;;;;;;4.15;3.85;;;;;;;;;;1052583;28;20028;-70
2023/12/04 00:35:04;;;;;;;9.05;4.53;;;;;;;;;;1052564;28;20035;-70
2023/12/04 00:35:35;;;;;;;9.85;4.35;;;;;;;;;;1052452;28;20055;-70
2023/12/04 00:36:05;;;;;;;14.43;6.65;;;;;;;;;;1052384;28;20036;-70
2023/12/04 00:36:36;;;;;;;5.28;1.83;;;;;;;;;;1052276;28;20020;-70
2023/12/04 00:37:06;;;;;;;4.78;3.22;;;;;;;;;;1052501;28;20028;-70
2023/12/04 00:37:38;;;;;;;4.18;3.40;;;;;;;;;;1052555;28;20012;-70
2023/12/04 00:38:08;;;;;;;16.17;1.77;;;;;;;;;;1052696;28;20035;-70
2023/12/04 00:38:39;;;;;;;6.22;1.55;;;;;;;;;;1052286;28;20387;-70
2023/12/04 00:39:09;;;;;;;23.98;3.30;;;;;;;;;;1052922;28;20040;-70
2023/12/04 00:39:40;;;;;;;9.20;3.65;;;;;;;;;;1052782;28;20035;-70
2023/12/04 00:40:10;;;;;;;17.38;2.50;;;;;;;;;;1053378;28;20020;-70
2023/12/04 00:40:41;;;;;;;2.22;1.98;;;;;;;;;;1052621;28;20031;-71
2023/12/04 00:41:11;;;;;;;2.25;2.15;;;;;;;;;;1051905;28;20035;-70
2023/12/04 00:41:41;;;;;;;5.00;1.80;;;;;;;;;;1051458;28;20028;-70
2023/12/04 00:42:12;;;;;;;3.47;3.17;;;;;;;;;;1052071;28;20028;-71
2023/12/04 00:42:42;;;;;;;2.58;2.38;;;;;;;;;;1052020;28;20154;-70
2023/12/04 00:43:13;;;;;;;2.28;2.08;;;;;;;;;;1052062;28;20122;-71
2023/12/04 00:43:43;;;;;;;3.08;1.08;;;;;;;;;;1051679;28;20123;-70
2023/12/04 00:44:14;;;;;;;8.18;2.80;;;;;;;;;;1052083;28;20119;-70
2023/12/04 00:44:44;;;;;;;1.95;1.85;;;;;;;;;;1052029;28;20036;-70
2023/12/04 00:45:15;;;;;;;2.95;2.67;;;;;;;;;;1052091;28;20020;-70
2023/12/04 00:45:45;;;;;;;4.57;2.78;;;;;;;;;;1052245;28;20028;-70
2023/12/04 00:46:15;;;;;;;3.40;2.53;;;;;;;;;;1052169;28;20051;-70
2023/12/04 00:46:46;;;;;;;3.63;2.85;;;;;;;;;;1052179;28;20583;-70
2023/12/04 00:47:17;;;;;;;0.75;0.75;;;;;;;;;;1052022;28;20020;-70
2023/12/04 00:47:47;;;;;;;1.98;1.52;;;;;;;;;;1048506;28;20033;-70
2023/12/04 00:48:17;;;;;;;5.63;1.45;;;;;;;;;;1048294;28;20025;-70
2023/12/04 00:48:48;;;;;;;6.85;3.88;;;;;;;;;;1047874;28;20025;-70
2023/12/04 00:49:18;;;;;;;15.68;2.88;;;;;;;;;;1047868;28;20074;-70
2023/12/04 00:49:49;;;;;;;4.85;3.13;;;;;;;;;;1047767;28;20480;-70
2023/12/04 00:50:19;;;;;;;1.25;1.10;;;;;;;;;;1048060;28;20020;-70
2023/12/04 00:50:51;;;;;;;1.25;0.95;;;;;;;;;;1047983;28;20119;-70
2023/12/04 00:51:21;;;;;;;5.57;3.90;;;;;;;;;;1047858;28;20025;-70
2023/12/04 00:51:51;;;;;;;3.97;3.17;;;;;;;;;;1047859;28;20115;-70
2023/12/04 00:52:22;;;;;;;2.53;2.33;;;;;;;;;;1048319;28;20031;-70
2023/12/04 00:52:52;;;;;;;6.63;3.10;;;;;;;;;;1048182;28;20032;-70
2023/12/04 00:53:23;;;;;;;2.35;2.00;;;;;;;;;;1048071;28;20039;-70
2023/12/04 00:53:53;;;;;;;2.45;2.28;;;;;;;;;;1048184;28;20032;-70
2023/12/04 00:54:24;;;;;;;3.35;3.05;;;;;;;;;;1048267;28;20283;-70
2023/12/04 00:54:54;;;;;;;7.45;4.18;;;;;;;;;;1048171;28;20029;-70
2023/12/04 00:55:25;;;;;;;3.25;2.75;;;;;;;;;;1048060;28;20043;-70
2023/12/04 00:55:55;;;;;;;1.50;1.40;;;;;;;;;;1048224;28;20032;-70
2023/12/04 00:56:25;;;;;;;0.90;0.90;;;;;;;;;;1048190;28;20031;-70
2023/12/04 00:56:56;;;;;;;3.30;3.03;;;;;;;;;;1048347;28;20048;-70
2023/12/04 00:57:26;;;;;;;10.98;1.90;;;;;;;;;;1051303;28;20020;-70
2023/12/04 00:57:57;;;;;;;6.35;2.17;;;;;;;;;;1052503;28;20028;-70
2023/12/04 00:58:27;;;;;;;4.30;3.72;;;;;;;;;;1050941;28;20024;-70
2023/12/04 00:58:57;;;;;;;3.58;3.28;;;;;;;;;;1050218;28;20028;-70
2023/12/04 00:59:28;;;;;;;13.18;4.70;;;;;;;;;;1051050;28;20352;-70
2023/12/04 00:59:58;;;;;;;1.75;1.42;;;;;;;;;;1051267;28;20482;-70
2023/12/04 01:00:29;;;;;;;3.47;2.72;;;;;;;;;;1050544;28;20039;-70
2023/12/04 01:00:59;;;;;;;3.35;2.80;;;;;;;;;;1053195;28;20110;-70
2023/12/04 01:01:30;;;;;;;3.30;1.58;;;;;;;;;;1052871;28;20024;-70
2023/12/04 01:02:00;;;;;;;5.07;4.63;;;;;;;;;;1053287;28;20016;-70
2023/12/04 01:02:31;;;;;;;1.67;1.58;;;;;;;;;;1053043;28;20024;-70
2023/12/04 01:03:01;;;;;;;2.30;2.13;;;;;;;;;;1053470;28;20070;-70
2023/12/04 01:03:33;;;;;;;3.70;3.40;;;;;;;;;;1052818;28;20027;-70
2023/12/04 01:04:03;;;;;;;4.28;2.47;;;;;;;;;;1052808;28;20023;-70
2023/12/04 01:04:34;;;;;;;2.42;1.92;;;;;;;;;;1052746;28;20470;-70
2023/12/04 01:05:04;;;;;;;2.70;2.13;;;;;;;;;;1053152;28;20032;-71
2023/12/04 01:05:35;;;;;;;0.73;0.73;;;;;;;;;;1053072;28;20475;-71
2023/12/04 01:06:05;;;;;;;5.18;3.75;;;;;;;;;;1053445;28;20027;-71
2023/12/04 01:06:36;;;;;;;1.48;1.38;;;;;;;;;;1053183;28;20024;-71
2023/12/04 01:07:06;;;;;;;2.88;1.88;;;;;;;;;;1053496;28;20020;-71
2023/12/04 01:07:37;;;;;;;2.35;2.17;;;;;;;;;;1052995;28;20032;-71
2023/12/04 01:08:07;;;;;;;1.48;1.42;;;;;;;;;;1044714;28;20017;-71
2023/12/04 01:08:38;;;;;;;4.35;1.83;;;;;;;;;;1044255;28;20057;-71
2023/12/04 01:09:08;;;;;;;8.43;1.67;;;;;;;;;;1044774;28;20139;-71
2023/12/04 01:09:39;;;;;;;4.38;3.85;;;;;;;;;;1048384;28;20031;-71
2023/12/04 01:10:09;;;;;;;1.23;1.15;;;;;;;;;;1053277;28;20126;-71
2023/12/04 01:10:40;;;;;;;5.40;3.92;;;;;;;;;;1050661;28;20047;-71
2023/12/04 01:11:10;;;;;;;2.15;1.95;;;;;;;;;;1048797;28;20022;-71
2023/12/04 01:11:40;;;;;;;1.38;0.88;;;;;;;;;;1048628;28;20032;-71
2023/12/04 01:12:11;;;;;;;3.08;1.52;;;;;;;;;;1045068;28;20021;-71
2023/12/04 01:12:41;;;;;;;3.80;2.95;;;;;;;;;;1044298;28;20040;-71
2023/12/04 01:13:12;;;;;;;2.80;1.83;;;;;;;;;;1044525;28;20021;-71
2023/12/04 01:13:42;;;;;;;2.60;2.40;;;;;;;;;;1044257;28;20454;-71
2023/12/04 01:14:13;;;;;;;12.98;3.05;;;;;;;;;;1048207;28;20103;-71
2023/12/04 01:14:43;;;;;;;8.00;4.03;;;;;;;;;;1046773;28;20713;-71
2023/12/04 01:15:14;;;;;;;2.63;2.28;;;;;;;;;;1049881;28;20479;-71
2023/12/04 01:15:46;;;;;;;2.95;2.40;;;;;;;;;;1048152;28;20120;-71
2023/12/04 01:16:19;;;;;;;5.43;2.22;;;;;;;;;;1049138;28;20123;-71
2023/12/04 01:16:50;;;;;;;6.55;4.30;;;;;;;;;;1047219;28;20078;-71
2023/12/04 01:17:20;;;;;;;4.55;2.10;;;;;;;;;;1043445;28;20082;-71
2023/12/04 01:17:50;;;;;;;14.07;3.60;;;;;;;;;;1044068;28;20082;-71
2023/12/04 01:18:21;;;;;;;3.20;3.00;;;;;;;;;;1047883;28;20465;-71
2023/12/04 01:18:51;;;;;;;8.50;4.55;;;;;;;;;;1047799;28;20024;-71
2023/12/04 01:19:22;;;;;;;5.38;2.38;;;;;;;;;;1049097;28;20032;-71
2023/12/04 01:19:52;;;;;;;4.22;3.60;;;;;;;;;;1049370;28;20033;-71
2023/12/04 01:20:23;;;;;;;7.32;3.80;;;;;;;;;;1050899;28;20368;-71
2023/12/04 01:20:53;;;;;;;4.55;2.85;;;;;;;;;;1051786;28;20032;-71
2023/12/04 01:21:24;;;;;;;4.72;1.73;;;;;;;;;;1052087;28;20551;-71
2023/12/04 01:21:54;;;;;;;1.88;1.70;;;;;;;;;;1052527;28;20492;-71
2023/12/04 01:22:25;;;;;;;3.92;2.20;;;;;;;;;;1051973;28;20054;-71
2023/12/04 01:22:55;;;;;;;1.77;1.67;;;;;;;;;;1049838;28;20112;-71
2023/12/04 01:23:25;;;;;;;1.38;1.27;;;;;;;;;;1050498;28;20073;-71
2023/12/04 01:23:56;;;;;;;5.65;4.43;;;;;;;;;;1049359;28;20032;-71
2023/12/04 01:24:26;;;;;;;1.35;1.25;;;;;;;;;;1050260;28;20028;-71
2023/12/04 01:24:57;;;;;;;9.20;3.28;;;;;;;;;;1052479;28;20023;-71
2023/12/04 01:25:27;;;;;;;2.80;2.53;;;;;;;;;;1051236;28;20063;-71
2023/12/04 01:25:58;;;;;;;4.28;1.88;;;;;;;;;;1048302;28;20028;-71
2023/12/04 01:26:28;;;;;;;2.55;2.10;;;;;;;;;;1048586;28;20111;-71
2023/12/04 01:26:59;;;;;;;3.35;3.05;;;;;;;;;;1049513;28;20095;-71
2023/12/04 01:27:30;;;;;;;6.18;3.38;;;;;;;;;;1050318;28;20033;-71
2023/12/04 01:28:00;;;;;;;4.50;3.05;;;;;;;;;;1049763;28;20470;-71
2023/12/04 01:28:31;;;;;;;4.53;4.07;;;;;;;;;;1048830;28;20055;-71
2023/12/04 01:29:01;;;;;;;17.95;2.22;;;;;;;;;;1048748;28;20048;-71
2023/12/04 01:29:32;;;;;;;0.95;0.95;;;;;;;;;;1049370;28;20067;-71
2023/12/04 01:30:02;;;;;;;10.20;3.60;;;;;;;;;;1049124;28;20035;-71
2023/12/04 01:30:33;;;;;;;3.35;2.30;;;;;;;;;;1050348;28;20058;-71
2023/12/04 01:31:03;;;;;;;4.05;2.88;;;;;;;;;;1047747;28;20021;-71
2023/12/04 01:31:34;;;;;;;4.40;2.35;;;;;;;;;;1050370;28;20032;-71
2023/12/04 01:32:04;;;;;;;1.60;1.48;;;;;;;;;;1049043;28;20028;-72
2023/12/04 01:32:35;;;;;;;23.75;2.58;;;;;;;;;;1051074;28;20032;-71
2023/12/04 01:33:05;;;;;;;3.70;3.25;;;;;;;;;;1053782;28;20023;-71
2023/12/04 01:33:36;;;;;;;2.35;1.83;;;;;;;;;;1049484;28;20028;-71
2023/12/04 01:34:06;;;;;;;29.63;4.53;;;;;;;;;;1044527;28;20032;-71
2023/12/04 01:34:37;;;;;;;8.75;3.42;;;;;;;;;;1044160;28;20024;-71
2023/12/04 01:35:07;;;;;;;2.13;1.58;;;;;;;;;;1045702;28;21175;-71
2023/12/04 01:35:37;;;;;;;2.53;2.38;;;;;;;;;;1049039;28;20123;-71
2023/12/04 01:36:08;;;;;;;4.85;2.42;;;;;;;;;;1047762;28;20495;-71
2023/12/04 01:36:42;;;;;;;6.20;4.60;;;;;;;;;;1049235;28;20023;-71
2023/12/04 01:37:12;;;;;;;19.23;5.90;;;;;;;;;;1049277;28;20062;-71
2023/12/04 01:37:42;;;;;;;5.13;3.45;;;;;;;;;;1049650;28;20024;-71
2023/12/04 01:38:13;;;;;;;3.03;2.22;;;;;;;;;;1050141;28;20042;-71
2023/12/04 01:38:43;;;;;;;1.85;0.95;;;;;;;;;;1049210;28;20027;-71
2023/12/04 01:39:14;;;;;;;3.78;2.50;;;;;;;;;;1047858;28;20772;-71
2023/12/04 01:39:44;;;;;;;1.15;1.10;;;;;;;;;;1047306;28;20742;-71
2023/12/04 01:40:15;;;;;;;2.20;2.03;;;;;;;;;;1050667;28;20050;-71
2023/12/04 01:40:45;;;;;;;2.50;1.45;;;;;;;;;;1048207;28;20000;-70
2023/12/04 01:41:16;;;;;;;21.20;2.47;;;;;;;;;;1047535;28;20051;-70
2023/12/04 01:41:46;;;;;;;3.70;2.22;;;;;;;;;;1048678;28;20043;-71
2023/12/04 01:42:17;;;;;;;5.97;3.20;;;;;;;;;;1048686;28;20575;-71
2023/12/04 01:42:54;;;;;;;5.60;2.83;;;;;;;;;;1051943;28;20024;-72
2023/12/04 01:43:25;;;;;;;2.40;1.73;;;;;;;;;;1050209;28;20073;-70
2023/12/04 01:43:55;;;;;;;5.40;3.00;;;;;;;;;;1048921;28;20152;-70
2023/12/04 01:44:25;;;;;;;6.53;3.50;;;;;;;;;;1052043;28;20429;-72
2023/12/04 01:44:56;;;;;;;4.72;3.10;;;;;;;;;;1051367;28;20081;-72
2023/12/04 01:45:26;;;;;;;4.82;3.75;;;;;;;;;;1048690;28;20024;-72
2023/12/04 01:45:59;;;;;;;3.45;3.00;;;;;;;;;;1048926;28;20028;-72
2023/12/04 01:46:30;;;;;;;10.57;5.75;;;;;;;;;;1050626;28;20426;-72
2023/12/04 01:47:00;;;;;;;2.50;2.30;;;;;;;;;;1050440;28;20024;-72
2023/12/04 01:47:31;;;;;;;12.57;3.85;;;;;;;;;;1049180;28;20150;-71
2023/12/04 01:48:02;;;;;;;3.13;2.83;;;;;;;;;;1047932;28;20039;-71
2023/12/04 01:48:32;;;;;;;4.10;2.47;;;;;;;;;;1050417;28;20078;-73
2023/12/04 01:49:03;;;;;;;2.03;1.92;;;;;;;;;;1050087;28;20039;-72
2023/12/04 01:49:34;;;;;;;5.38;2.70;;;;;;;;;;1050530;28;20027;-72
2023/12/04 01:50:05;;;;;;;2.25;2.05;;;;;;;;;;1048737;28;20052;-70
2023/12/04 01:50:36;;;;;;;1.85;1.45;;;;;;;;;;1049962;28;20771;-70
2023/12/04 01:51:09;;;;;;;4.70;2.42;;;;;;;;;;1049307;28;20052;-71
2023/12/04 01:51:40;;;;;;;2.88;2.50;;;;;;;;;;1049151;28;20019;-72
2023/12/04 01:52:11;;;;;;;3.63;2.63;;;;;;;;;;1049240;28;20028;-71
2023/12/04 01:52:41;;;;;;;11.60;7.57;;;;;;;;;;1048625;28;20040;-71
2023/12/04 01:53:12;;;;;;;3.80;0.90;;;;;;;;;;1049993;28;20027;-71
2023/12/04 01:53:42;;;;;;;2.03;1.85;;;;;;;;;;1048068;28;20028;-71
2023/12/04 01:54:13;;;;;;;15.63;4.75;;;;;;;;;;1051259;28;20461;-71
2023/12/04 01:54:44;;;;;;;2.05;1.92;;;;;;;;;;1051355;28;20499;-71
2023/12/04 01:55:14;;;;;;;1.08;1.05;;;;;;;;;;1050277;28;20065;-71
2023/12/04 01:55:45;;;;;;;8.55;2.70;;;;;;;;;;1050605;28;20028;-71
2023/12/04 01:56:17;;;;;;;8.32;3.97;;;;;;;;;;1048951;28;20046;-72
2023/12/04 01:56:48;;;;;;;4.72;3.88;;;;;;;;;;1046831;28;20127;-71
2023/12/04 01:57:19;;;;;;;3.45;2.53;;;;;;;;;;1048668;28;20118;-71
2023/12/04 01:57:49;;;;;;;14.35;2.90;;;;;;;;;;1046799;28;20028;-71
2023/12/04 01:58:20;;;;;;;4.45;1.38;;;;;;;;;;1046457;28;20078;-72
2023/12/04 01:58:51;;;;;;;7.47;3.60;;;;;;;;;;1048688;28;20086;-71
2023/12/04 01:59:21;;;;;;;1.95;1.73;;;;;;;;;;1051053;28;20031;-72
2023/12/04 01:59:52;;;;;;;4.03;1.42;;;;;;;;;;1047680;28;20598;-72
2023/12/04 02:00:22;;;;;;;3.08;2.88;;;;;;;;;;1049260;28;20066;-72
2023/12/04 02:00:53;;;;;;;2.65;1.52;;;;;;;;;;1049591;28;20027;-72
2023/12/04 02:01:23;;;;;;;11.70;2.50;;;;;;;;;;1047258;28;20096;-72
2023/12/04 02:01:55;;;;;;;7.68;2.03;;;;;;;;;;1049662;28;20496;-72
2023/12/04 02:02:25;;;;;;;4.50;2.35;;;;;;;;;;1046232;28;20035;-72
2023/12/04 02:02:56;;;;;;;4.72;3.38;;;;;;;;;;1047197;28;20016;-72
2023/12/04 02:03:27;;;;;;;0.93;0.93;;;;;;;;;;1046761;28;20025;-72
2023/12/04 02:04:04;;;;;;;7.10;2.72;;;;;;;;;;1046768;28;20982;-72
2023/12/04 02:04:35;;;;;;;2.35;1.45;;;;;;;;;;1047508;28;20100;-72
2023/12/04 02:05:07;;;;;;;3.97;2.20;;;;;;;;;;1047146;28;20130;-72
2023/12/04 02:05:38;;;;;;;5.00;3.15;;;;;;;;;;1046579;28;20034;-72
2023/12/04 02:06:09;;;;;;;4.00;1.55;;;;;;;;;;1042966;28;20114;-71
2023/12/04 02:06:40;;;;;;;9.88;5.47;;;;;;;;;;1038845;28;20029;-71
2023/12/04 02:07:11;;;;;;;9.75;2.67;;;;;;;;;;1043219;28;20116;-71
2023/12/04 02:07:41;;;;;;;3.67;2.70;;;;;;;;;;1038183;28;20088;-71
2023/12/04 02:08:14;;;;;;;1.17;1.15;;;;;;;;;;1042938;28;20094;-71
2023/12/04 02:08:46;;;;;;;2.47;2.05;;;;;;;;;;1047056;28;20053;-72
2023/12/04 02:09:17;;;;;;;3.15;2.38;;;;;;;;;;1049280;28;20042;-72
2023/12/04 02:09:47;;;;;;;11.93;5.47;;;;;;;;;;1046968;28;20651;-71
2023/12/04 02:10:18;;;;;;;1.90;1.60;;;;;;;;;;1045106;28;20475;-71
2023/12/04 02:10:49;;;;;;;4.63;2.25;;;;;;;;;;1046394;28;20019;-71
2023/12/04 02:11:19;;;;;;;9.48;4.53;;;;;;;;;;1047835;28;20554;-71
2023/12/04 02:11:50;;;;;;;5.88;2.42;;;;;;;;;;1044631;28;20016;-71
2023/12/04 02:12:21;;;;;;;12.13;2.53;;;;;;;;;;1042996;28;20043;-72
2023/12/04 02:12:51;;;;;;;5.55;3.40;;;;;;;;;;1039925;28;20055;-71
2023/12/04 02:13:23;;;;;;;5.47;1.27;;;;;;;;;;1042987;28;20033;-72
2023/12/04 02:13:53;;;;;;;2.13;1.98;;;;;;;;;;1047425;28;20020;-72
2023/12/04 02:14:24;;;;;;;7.32;3.95;;;;;;;;;;1049264;28;20445;-72
2023/12/04 02:14:55;;;;;;;7.43;2.10;;;;;;;;;;1049521;28;20511;-72
2023/12/04 02:15:26;;;;;;;11.65;5.65;;;;;;;;;;1045638;28;20062;-72
2023/12/04 02:15:58;;;;;;;6.38;5.72;;;;;;;;;;1047118;28;20114;-72
2023/12/04 02:16:29;;;;;;;4.95;4.45;;;;;;;;;;1049889;28;20104;-72
2023/12/04 02:17:01;;;;;;;2.80;2.60;;;;;;;;;;1048948;28;20475;-72
2023/12/04 02:17:32;;;;;;;4.75;3.38;;;;;;;;;;1049024;28;20031;-72
2023/12/04 02:18:03;;;;;;;2.92;2.65;;;;;;;;;;1052624;28;20019;-72
2023/12/04 02:18:34;;;;;;;3.88;2.90;;;;;;;;;;1051190;28;20032;-72
2023/12/04 02:19:07;;;;;;;2.25;2.13;;;;;;;;;;1047682;28;20126;-73
2023/12/04 02:19:37;;;;;;;11.15;5.57;;;;;;;;;;1045313;28;20047;-72
2023/12/04 02:20:09;;;;;;;2.00;1.90;;;;;;;;;;1045740;28;20550;-72
2023/12/04 02:20:39;;;;;;;9.73;6.22;;;;;;;;;;1050334;28;20035;-72
2023/12/04 02:21:10;;;;;;;4.78;2.35;;;;;;;;;;1048228;28;20027;-72
2023/12/04 02:21:40;;;;;;;4.55;1.33;;;;;;;;;;1049688;28;20066;-72
2023/12/04 02:22:11;;;;;;;2.45;1.75;;;;;;;;;;1048749;28;20024;-72
2023/12/04 02:22:41;;;;;;;8.77;4.22;;;;;;;;;;1049889;28;20487;-72
2023/12/04 02:23:12;;;;;;;2.25;2.00;;;;;;;;;;1046394;28;20028;-72
2023/12/04 02:23:42;;;;;;;3.35;3.13;;;;;;;;;;1045419;28;20091;-73
2023/12/04 02:24:13;;;;;;;5.25;2.55;;;;;;;;;;1042391;28;20021;-72
2023/12/04 02:24:44;;;;;;;5.75;4.53;;;;;;;;;;1043708;28;20028;-72
2023/12/04 02:25:15;;;;;;;8.88;2.88;;;;;;;;;;1046298;28;20033;-73
2023/12/04 02:25:45;;;;;;;3.47;2.25;;;;;;;;;;1047450;28;20051;-72
2023/12/04 02:26:17;;;;;;;3.92;2.85;;;;;;;;;;1049315;28;20473;-72
2023/12/04 02:26:51;;;;;;;3.47;3.17;;;;;;;;;;1050912;28;20038;-73
2023/12/04 02:27:23;;;;;;;2.97;2.70;;;;;;;;;;1050343;28;20024;-72
2023/12/04 02:27:55;;;;;;;3.92;3.47;;;;;;;;;;1051019;28;20016;-72
2023/12/04 02:28:30;;;;;;;10.73;1.23;;;;;;;;;;1049642;28;20032;-72
2023/12/04 02:29:05;;;;;;;2.90;2.58;;;;;;;;;;1048852;28;20027;-72
2023/12/04 02:29:38;;;;;;;4.07;1.42;;;;;;;;;;1049973;28;20575;-72
2023/12/04 02:30:11;;;;;;;4.93;3.85;;;;;;;;;;1048051;28;20028;-73
2023/12/04 02:30:43;;;;;;;8.88;6.00;;;;;;;;;;1042823;28;20057;-72
2023/12/04 02:31:15;;;;;;;1.25;1.15;;;;;;;;;;1040731;28;20304;-72
2023/12/04 02:31:46;;;;;;;5.95;4.13;;;;;;;;;;1038357;28;20536;-73
2023/12/04 02:32:18;;;;;;;1.73;1.63;;;;;;;;;;1043252;28;20128;-73
2023/12/04 02:32:49;;;;;;;2.15;1.27;;;;;;;;;;1044559;28;20345;-71
2023/12/04 02:33:21;;;;;;;14.30;3.47;;;;;;;;;;1046937;28;20101;-71
2023/12/04 02:33:54;;;;;;;6.35;2.83;;;;;;;;;;1049972;28;20041;-70
2023/12/04 02:34:25;;;;;;;1.85;1.75;;;;;;;;;;1049130;28;20867;-71
2023/12/04 02:34:56;;;;;;;2.33;1.95;;;;;;;;;;1052586;28;20514;-72
2023/12/04 02:35:29;;;;;;;2.00;1.90;;;;;;;;;;1048250;28;20131;-70
2023/12/04 02:36:03;;;;;;;5.18;3.05;;;;;;;;;;1050827;28;20039;-72
2023/12/04 02:36:38;;;;;;;3.55;3.13;;;;;;;;;;1048942;28;20535;-73
2023/12/04 02:37:09;;;;;;;2.88;2.15;;;;;;;;;;1052731;28;20073;-74
2023/12/04 02:37:40;;;;;;;9.73;3.45;;;;;;;;;;1050388;28;20024;-73
2023/12/04 02:38:11;;;;;;;2.20;1.75;;;;;;;;;;1050568;28;20151;-72
2023/12/04 02:38:42;;;;;;;11.95;2.47;;;;;;;;;;1048213;28;20198;-72
2023/12/04 02:39:12;;;;;;;4.85;3.63;;;;;;;;;;1050732;28;20055;-73
2023/12/04 02:39:43;;;;;;;14.48;4.57;;;;;;;;;;1051381;28;20031;-73
2023/12/04 02:40:14;;;;;;;6.57;3.25;;;;;;;;;;1051064;28;20058;-74
2023/12/04 02:40:45;;;;;;;9.82;2.30;;;;;;;;;;1050642;28;20385;-71
2023/12/04 02:41:17;;;;;;;4.65;2.53;;;;;;;;;;1050458;28;20028;-72
2023/12/04 02:41:47;;;;;;;6.95;4.38;;;;;;;;;;1048887;28;20055;-73
2023/12/04 02:42:19;;;;;;;5.63;3.33;;;;;;;;;;1049848;28;20062;-73
2023/12/04 02:42:49;;;;;;;16.02;2.80;;;;;;;;;;1051424;28;20025;-72
2023/12/04 02:43:20;;;;;;;3.58;2.30;;;;;;;;;;1051688;28;20556;-72
2023/12/04 02:43:50;;;;;;;3.20;2.17;;;;;;;;;;1047922;28;20024;-72
2023/12/04 02:44:21;;;;;;;1.73;1.60;;;;;;;;;;1040975;28;20563;-73
2023/12/04 02:44:51;;;;;;;3.60;3.30;;;;;;;;;;1042596;28;20407;-72
2023/12/04 02:45:22;;;;;;;2.53;1.73;;;;;;;;;;1045706;28;20017;-74
2023/12/04 02:45:52;;;;;;;8.45;3.70;;;;;;;;;;1050068;28;20124;-72
2023/12/04 02:46:23;;;;;;;2.67;2.20;;;;;;;;;;1051491;28;20028;-73
2023/12/04 02:46:53;;;;;;;2.92;2.70;;;;;;;;;;1049843;28;20581;-73
2023/12/04 02:47:24;;;;;;;11.63;1.77;;;;;;;;;;1049329;28;20015;-72
2023/12/04 02:47:54;;;;;;;13.52;5.25;;;;;;;;;;1047812;28;20086;-72
2023/12/04 02:48:26;;;;;;;3.95;1.90;;;;;;;;;;1048483;28;20020;-72
2023/12/04 02:48:56;;;;;;;10.15;2.03;;;;;;;;;;1050766;28;20051;-73
2023/12/04 02:49:27;;;;;;;1.52;1.23;;;;;;;;;;1051232;28;20344;-72
2023/12/04 02:50:01;;;;;;;9.63;5.07;;;;;;;;;;1048309;28;20040;-72
2023/12/04 02:50:31;;;;;;;10.10;5.22;;;;;;;;;;1051248;28;20024;-71
2023/12/04 07:51:09;;;;;;;26.83;5.57;;;;;;;;;;1048939;28;20461;-73
2023/12/04 07:51:39;;;;;;;4.82;4.32;;;;;;;;;;1046519;28;20031;-73
2023/12/04 07:52:11;;;;;;;5.90;4.63;;;;;;;;;;1049061;28;20067;-72
2023/12/04 07:52:41;;;;;;;8.55;5.25;;;;;;;;;;1048866;28;20127;-73
2023/12/04 07:53:13;;;;;;;6.78;2.67;;;;;;;;;;1046106;28;20042;-73
2023/12/04 07:53:43;;;;;;;7.97;4.72;;;;;;;;;;1047883;28;20032;-73
2023/12/04 07:54:18;;;;;;;8.48;4.95;;;;;;;;;;1046331;28;20086;-73
2023/12/04 07:54:49;;;;;;;17.33;5.97;;;;;;;;;;1048237;28;20031;-74
2023/12/04 07:55:19;;;;;;;9.48;6.60;;;;;;;;;;1031495;28;20034;-73
2023/12/04 07:55:53;;;;;;;4.40;4.00;;;;;;;;;;1049675;28;20012;-73
2023/12/04 07:56:24;;;;;;;18.25;8.85;;;;;;;;;;1047792;28;20537;-71
2023/12/04 07:56:54;;;;;;;10.13;3.83;;;;;;;;;;1049086;28;20513;-73
2023/12/04 07:57:24;;;;;;;5.63;3.65;;;;;;;;;;1049572;28;20024;-72
2023/12/04 07:57:56;;;;;;;4.82;4.47;;;;;;;;;;1047620;28;20036;-73
2023/12/04 07:58:27;;;;;;;9.50;6.97;;;;;;;;;;1049363;28;20024;-73
2023/12/04 07:58:57;;;;;;;12.27;5.15;;;;;;;;;;1045318;28;20024;-72
2023/12/04 07:59:28;;;;;;;6.63;5.18;;;;;;;;;;1047862;28;20028;-72
2023/12/04 07:59:58;;;;;;;11.57;5.30;;;;;;;;;;1048465;28;20016;-72
2023/12/04 08:00:29;;;;;;;6.68;4.40;;;;;;;;;;1049846;28;20190;-72
2023/12/04 08:00:59;;;;;;;7.07;5.75;;;;;;;;;;1048400;28;20051;-72
2023/12/04 08:01:33;;;;;;;10.52;4.03;;;;;;;;;;1049524;28;20027;-74
2023/12/04 08:02:04;;;;;;;22.48;5.88;;;;;;;;;;1044331;28;20020;-72
2023/12/04 08:02:34;;;;;;;10.40;4.13;;;;;;;;;;1044906;28;20282;-72
2023/12/04 08:03:05;;;;;;;8.15;5.05;;;;;;;;;;1048196;28;20115;-72
2023/12/04 08:03:35;;;;;;;7.68;6.97;;;;;;;;;;1048327;28;20502;-74
2023/12/04 08:04:06;;;;;;;14.00;6.03;;;;;;;;;;1048590;28;20464;-73
2023/12/04 08:04:37;;;;;;;30.33;6.18;;;;;;;;;;1050207;28;20399;-74